Time;durP1;ratioP1;P1;durP2;ratioP2;P2;SDS_P1;SDS_P2;PMS_P1;PMS_P2;Temp;Humidity;BMP_temperature;BMP_pressure;BME280_temperature;BME280_humidity;BME280_pressure;Samples;Min_cycle;Max_cycle;Signal;HPM_P1;HPM_P2
2023/05/04 00:00:51;;;;;;;10.70;4.85;;;;;;;3.31;100.00;99659.28;5159977;27;20046;-59
2023/05/04 00:03:17;;;;;;;11.73;4.70;;;;;;;3.23;100.00;99649.97;5159491;27;20077;-65
2023/05/04 00:05:43;;;;;;;12.30;5.40;;;;;;;3.28;100.00;99665.31;5159437;27;20074;-64
2023/05/04 00:08:10;;;;;;;11.23;5.05;;;;;;;3.27;100.00;99682.69;5159470;27;20084;-62
2023/05/04 00:10:36;;;;;;;10.00;4.93;;;;;;;3.24;100.00;99703.03;5159611;27;20099;-57
2023/05/04 00:13:02;;;;;;;12.07;4.90;;;;;;;3.22;100.00;99745.09;5159678;27;20054;-62
2023/05/04 00:15:29;;;;;;;10.30;4.80;;;;;;;3.16;100.00;99768.75;5159552;27;20110;-64
2023/05/04 00:17:55;;;;;;;9.70;5.47;;;;;;;3.21;100.00;99798.47;5159626;27;20050;-62
2023/05/04 00:20:21;;;;;;;9.57;5.00;;;;;;;3.15;100.00;99804.31;5159443;27;20057;-58
2023/05/04 00:22:47;;;;;;;13.38;5.40;;;;;;;3.14;100.00;99833.31;5159479;27;20319;-61
2023/05/04 00:25:13;;;;;;;16.00;5.25;;;;;;;3.13;100.00;99861.47;5159247;27;20058;-64
2023/05/04 00:27:39;;;;;;;10.90;5.38;;;;;;;3.13;100.00;99872.31;5159494;27;20461;-66
2023/05/04 00:30:07;;;;;;;8.95;5.10;;;;;;;3.07;100.00;99881.66;5159097;27;20058;-66
2023/05/04 00:32:33;;;;;;;9.13;4.95;;;;;;;3.08;100.00;99902.22;5159083;27;20138;-58
2023/05/04 00:34:59;;;;;;;10.38;5.03;;;;;;;3.10;100.00;99918.16;5158958;27;20335;-57
2023/05/04 00:37:25;;;;;;;9.20;5.10;;;;;;;3.08;100.00;99934.72;5159476;27;20054;-64
2023/05/04 00:39:51;;;;;;;12.80;5.07;;;;;;;3.06;100.00;99939.63;5159206;27;20392;-66
2023/05/04 00:42:17;;;;;;;10.55;4.82;;;;;;;3.05;100.00;99952.38;5159092;27;20042;-65
2023/05/04 00:44:43;;;;;;;7.15;4.68;;;;;;;3.07;100.00;99976.47;5159211;27;20046;-65
2023/05/04 00:47:10;;;;;;;12.25;5.22;;;;;;;3.05;100.00;99976.75;5159167;27;20070;-65
2023/05/04 00:49:36;;;;;;;6.93;4.65;;;;;;;2.97;100.00;99977.44;5158969;27;20046;-64
2023/05/04 00:52:04;;;;;;;9.32;4.68;;;;;;;2.95;100.00;99985.03;5158697;27;20200;-63
2023/05/04 00:54:30;;;;;;;8.27;4.75;;;;;;;2.93;100.00;99984.53;5159079;27;20042;-59
2023/05/04 00:56:56;;;;;;;9.65;4.60;;;;;;;2.92;100.00;99996.47;5158566;27;20043;-57
2023/05/04 00:59:23;;;;;;;8.93;4.55;;;;;;;2.87;100.00;100001.16;5159009;27;20047;-63
2023/05/04 01:01:49;;;;;;;6.78;4.10;;;;;;;2.89;100.00;99996.25;5158392;27;20053;-59
2023/05/04 01:04:15;;;;;;;5.28;4.20;;;;;;;2.82;100.00;99994.69;5159067;27;20055;-61
2023/05/04 01:06:47;;;;;;;9.00;5.07;;;;;;;2.81;100.00;100003.94;5158449;27;20141;-54
2023/05/04 01:09:21;;;;;;;8.05;4.43;;;;;;;2.79;100.00;100033.19;5158491;27;20405;-60
2023/05/04 01:11:54;;;;;;;8.75;4.68;;;;;;;2.75;100.00;100053.84;5158729;27;20055;-63
2023/05/04 01:14:21;;;;;;;8.93;4.65;;;;;;;2.71;100.00;100050.09;5158622;27;20061;-60
2023/05/04 01:16:49;;;;;;;9.90;4.35;;;;;;;2.71;100.00;100068.25;5157655;27;20137;-58
2023/05/04 01:19:15;;;;;;;5.82;4.00;;;;;;;2.71;100.00;100077.19;5158290;27;20107;-55
2023/05/04 01:21:42;;;;;;;15.18;4.35;;;;;;;2.67;100.00;100100.53;5158561;27;20046;-64
2023/05/04 01:24:08;;;;;;;7.43;4.75;;;;;;;2.69;100.00;100114.56;5158271;27;20137;-65
2023/05/04 01:26:38;;;;;;;7.35;4.20;;;;;;;2.68;100.00;100136.53;5158701;27;20061;-59
2023/05/04 01:29:11;;;;;;;10.43;4.85;;;;;;;2.65;100.00;100147.94;5158219;27;20050;-57
2023/05/04 01:31:38;;;;;;;6.90;4.45;;;;;;;2.62;100.00;100143.09;5158381;27;20397;-65
2023/05/04 01:34:06;;;;;;;12.05;5.15;;;;;;;2.66;100.00;100157.66;5158164;27;20165;-60
2023/05/04 01:36:32;;;;;;;8.63;4.82;;;;;;;2.64;100.00;100157.16;5158217;27;20046;-64
2023/05/04 01:38:59;;;;;;;12.68;5.35;;;;;;;2.57;100.00;100166.41;5158196;27;20053;-60
2023/05/04 01:41:25;;;;;;;8.82;4.50;;;;;;;2.58;100.00;100178.03;5157901;27;20051;-61
2023/05/04 01:43:51;;;;;;;10.50;4.85;;;;;;;2.58;100.00;100195.09;5158320;27;20146;-58
2023/05/04 01:46:17;;;;;;;8.90;4.43;;;;;;;2.56;100.00;100196.47;5158091;27;20135;-60
2023/05/04 01:48:43;;;;;;;13.07;5.40;;;;;;;2.55;100.00;100208.41;5158274;27;20074;-64
2023/05/04 01:51:09;;;;;;;8.77;4.53;;;;;;;2.52;100.00;100204.34;5157921;27;20138;-66
2023/05/04 01:53:35;;;;;;;9.25;4.80;;;;;;;2.52;100.00;100203.53;5158349;27;20058;-63
2023/05/04 01:56:02;;;;;;;13.13;5.05;;;;;;;2.44;100.00;100220.41;5157839;27;20079;-61
2023/05/04 01:58:28;;;;;;;8.80;5.00;;;;;;;2.44;100.00;100225.84;5158257;27;20096;-56
2023/05/04 02:00:54;;;;;;;8.52;4.70;;;;;;;2.43;100.00;100229.63;5157700;27;20042;-64
2023/05/04 02:03:19;;;;;;;8.05;5.07;;;;;;;2.41;100.00;100224.50;5157905;27;20137;-63
2023/05/04 02:05:45;;;;;;;8.63;5.07;;;;;;;2.41;100.00;100221.00;5157970;27;20092;-66
2023/05/04 02:08:11;;;;;;;19.17;5.15;;;;;;;2.41;100.00;100205.56;5157928;27;20097;-61
2023/05/04 02:10:37;;;;;;;9.35;5.40;;;;;;;2.38;100.00;100221.56;5157999;27;20184;-61
2023/05/04 02:13:04;;;;;;;11.38;5.30;;;;;;;2.37;100.00;100237.00;5158322;27;20145;-59
2023/05/04 02:15:30;;;;;;;15.68;5.30;;;;;;;2.38;100.00;100252.13;5158122;27;20133;-58
2023/05/04 02:17:56;;;;;;;10.13;4.97;;;;;;;2.32;100.00;100251.34;5157680;27;20046;-62
2023/05/04 02:20:22;;;;;;;9.45;5.35;;;;;;;2.34;100.00;100264.63;5157909;27;20491;-66
2023/05/04 02:22:48;;;;;;;11.23;5.45;;;;;;;2.35;100.00;100279.75;5157452;27;20057;-65
2023/05/04 02:25:14;;;;;;;12.45;5.32;;;;;;;2.36;100.00;100279.44;5158023;27;20137;-64
2023/05/04 02:27:40;;;;;;;8.95;5.22;;;;;;;2.35;100.00;100283.25;5158906;27;20046;-65
2023/05/04 02:30:08;;;;;;;10.50;5.32;;;;;;;2.31;100.00;100293.03;5161275;27;20089;-64
2023/05/04 02:32:35;;;;;;;8.88;5.43;;;;;;;2.30;100.00;100301.44;5161320;27;20130;-61
2023/05/04 02:35:01;;;;;;;16.10;5.38;;;;;;;2.28;100.00;100317.16;5161125;27;20388;-61
2023/05/04 02:37:27;;;;;;;6.90;4.65;;;;;;;2.30;100.00;100328.47;5161275;27;20093;-63
2023/05/04 02:39:53;;;;;;;10.45;5.60;;;;;;;2.28;100.00;100330.69;5161096;27;20058;-65
2023/05/04 02:42:19;;;;;;;13.88;5.38;;;;;;;2.33;100.00;100338.75;5161148;27;20057;-63
2023/05/04 02:44:44;;;;;;;10.55;5.18;;;;;;;2.39;100.00;100324.09;5160925;27;20066;-57
2023/05/04 02:47:11;;;;;;;9.88;5.68;;;;;;;2.40;100.00;100314.06;5161260;27;20307;-57
2023/05/04 02:49:37;;;;;;;10.68;6.10;;;;;;;2.34;100.00;100322.25;5160830;27;20079;-59
2023/05/04 02:52:03;;;;;;;13.32;5.03;;;;;;;2.41;100.00;100323.84;5161161;27;20046;-56
2023/05/04 02:54:29;;;;;;;9.65;5.28;;;;;;;2.45;100.00;100309.44;5160643;27;20369;-63
2023/05/04 02:56:55;;;;;;;8.65;5.05;;;;;;;2.54;100.00;100312.34;5160477;27;20083;-65
2023/05/04 02:59:21;;;;;;;13.50;5.25;;;;;;;2.63;100.00;100305.22;5160830;27;20047;-65
2023/05/04 03:01:47;;;;;;;14.43;5.13;;;;;;;2.94;100.00;100296.84;5160419;27;20108;-61
2023/05/04 03:04:13;;;;;;;8.75;4.65;;;;;;;2.95;100.00;100252.41;5160627;27;20053;-57
2023/05/04 03:06:39;;;;;;;10.55;5.03;;;;;;;3.28;100.00;100220.84;5160386;27;20416;-63
2023/05/04 03:09:05;;;;;;;9.23;5.03;;;;;;;3.92;100.00;100157.00;5160788;27;20082;-61
2023/05/04 03:11:31;;;;;;;13.85;5.45;;;;;;;4.41;100.00;100005.50;5160552;27;20084;-63
2023/05/04 03:13:57;;;;;;;15.35;5.03;;;;;;;4.94;100.00;99803.84;5160710;27;20467;-65
2023/05/04 03:16:23;;;;;;;8.20;4.07;;;;;;;5.37;100.00;99580.28;5160375;27;20137;-65
2023/05/04 03:18:49;;;;;;;9.13;5.05;;;;;;;5.68;100.00;99361.69;5160706;27;20065;-64
2023/05/04 03:21:15;;;;;;;11.10;4.95;;;;;;;6.10;100.00;99199.31;5160192;27;20074;-60
2023/05/04 03:23:41;;;;;;;10.95;5.10;;;;;;;6.52;100.00;99106.59;5160623;27;20069;-64
2023/05/04 03:26:07;;;;;;;12.23;4.85;;;;;;;6.95;100.00;99073.34;5160142;27;20078;-65
2023/05/04 03:28:34;;;;;;;11.45;4.55;;;;;;;7.27;100.00;99073.53;5160373;27;20131;-57
2023/05/04 03:31:00;;;;;;;9.00;5.03;;;;;;;7.62;100.00;99114.66;5160031;27;20103;-67
2023/05/04 03:33:26;;;;;;;11.02;5.15;;;;;;;7.73;100.00;99155.88;5160243;27;20058;-60
2023/05/04 03:35:52;;;;;;;10.38;4.93;;;;;;;8.24;100.00;99197.91;5160218;27;20050;-57
2023/05/04 03:38:18;;;;;;;9.77;5.28;;;;;;;8.37;100.00;99260.69;5159720;27;20138;-57
2023/05/04 03:40:44;;;;;;;10.65;4.70;;;;;;;8.55;100.00;99277.59;5159646;27;20061;-58
2023/05/04 03:43:10;;;;;;;10.50;5.18;;;;;;;8.56;100.00;99320.16;5159820;27;20046;-63
2023/05/04 03:45:36;;;;;;;12.32;4.55;;;;;;;9.03;100.00;99353.13;5160275;27;20054;-66
2023/05/04 03:48:02;;;;;;;9.80;4.97;;;;;;;9.52;100.00;99404.00;5159894;27;20051;-65
2023/05/04 03:50:28;;;;;;;11.00;5.50;;;;;;;9.90;100.00;99425.31;5160236;27;20115;-57
2023/05/04 03:52:54;;;;;;;9.75;4.28;;;;;;;9.96;100.00;99464.19;5159788;27;20133;-58
2023/05/04 03:55:21;;;;;;;13.07;5.15;;;;;;;10.27;100.00;99479.84;5160195;27;20082;-66
2023/05/04 03:57:47;;;;;;;18.05;5.03;;;;;;;10.49;100.00;99503.84;5159557;27;20109;-62
2023/05/04 04:00:14;;;;;;;7.72;5.07;;;;;;;10.51;100.00;99515.28;5159612;27;20419;-63
2023/05/04 04:02:40;;;;;;;12.50;5.18;;;;;;;10.68;100.00;99518.78;5159758;27;20043;-64
2023/05/04 04:05:07;;;;;;;6.85;4.80;;;;;;;10.66;100.00;99524.63;5159654;27;20431;-67
2023/05/04 04:07:33;;;;;;;8.45;4.97;;;;;;;10.04;100.00;99507.06;5159648;27;20323;-66
2023/05/04 04:09:58;;;;;;;10.80;5.15;;;;;;;9.62;100.00;99469.97;5159545;27;20137;-66
2023/05/04 04:12:25;;;;;;;8.63;4.85;;;;;;;9.19;100.00;99411.38;5159771;27;20145;-65
2023/05/04 04:14:51;;;;;;;9.50;5.00;;;;;;;9.29;100.00;99363.56;5159266;27;20442;-64
2023/05/04 04:17:17;;;;;;;12.35;5.55;;;;;;;9.57;100.00;99373.66;5159621;27;20051;-60
2023/05/04 04:19:43;;;;;;;19.02;5.53;;;;;;;9.46;100.00;99369.84;5159396;27;20085;-56
2023/05/04 04:22:09;;;;;;;10.15;4.15;;;;;;;9.49;100.00;99363.66;5159068;27;20381;-61
2023/05/04 04:24:35;;;;;;;10.20;5.20;;;;;;;9.73;100.00;99373.63;5159178;27;20485;-65
2023/05/04 04:27:01;;;;;;;9.63;4.90;;;;;;;9.83;100.00;99378.56;5159629;27;20047;-64
2023/05/04 04:29:28;;;;;;;14.27;5.80;;;;;;;9.82;100.00;99385.22;5159406;27;20047;-60
2023/05/04 04:31:54;;;;;;;16.67;4.93;;;;;;;10.02;100.00;99383.34;5159049;27;20407;-56
2023/05/04 04:34:21;;;;;;;10.38;5.18;;;;;;;10.15;100.00;99379.34;5159454;27;20195;-66
2023/05/04 04:36:47;;;;;;;8.80;5.03;;;;;;;10.66;100.00;99409.47;5158833;27;20078;-65
2023/05/04 04:39:13;;;;;;;13.73;6.10;;;;;;;11.20;100.00;99447.03;5159357;27;20146;-65
2023/05/04 04:41:39;;;;;;;9.23;4.30;;;;;;;11.83;100.00;99509.03;5158774;27;20054;-58
2023/05/04 04:44:05;;;;;;;12.68;4.85;;;;;;;12.19;100.00;99550.88;5159179;27;20050;-59
2023/05/04 04:46:32;;;;;;;12.45;5.35;;;;;;;12.67;100.00;99576.84;5158817;27;20133;-65
2023/05/04 04:48:58;;;;;;;12.63;5.30;;;;;;;13.26;100.00;99609.56;5159073;27;20311;-64
2023/05/04 04:51:24;;;;;;;20.42;5.97;;;;;;;13.89;100.00;99631.66;5158591;27;20142;-64
2023/05/04 04:53:50;;;;;;;10.27;4.90;;;;;;;14.23;100.00;99655.66;5158974;27;20373;-63
2023/05/04 04:56:17;;;;;;;22.15;4.85;;;;;;;14.76;100.00;99671.97;5158690;27;20077;-60
2023/05/04 04:58:43;;;;;;;19.30;5.65;;;;;;;14.71;100.00;99686.94;5158754;27;20047;-66
2023/05/04 05:01:09;;;;;;;11.85;5.35;;;;;;;14.95;100.00;99680.03;5159499;27;20114;-62
2023/05/04 05:03:36;;;;;;;12.23;6.13;;;;;;;14.94;100.00;99683.97;5158769;27;20340;-59
2023/05/04 05:06:02;;;;;;;9.20;5.05;;;;;;;15.35;98.98;99692.19;5158727;27;20050;-59
2023/05/04 05:08:28;;;;;;;13.63;7.35;;;;;;;15.87;94.18;99687.38;5158544;27;20336;-59
2023/05/04 05:10:55;;;;;;;10.18;6.80;;;;;;;16.08;87.74;99708.81;5158699;27;20065;-63
2023/05/04 05:13:21;;;;;;;11.68;5.32;;;;;;;16.35;82.73;99714.81;5158307;27;20448;-64
2023/05/04 05:15:47;;;;;;;11.82;4.78;;;;;;;16.63;85.89;99710.56;5160815;27;20056;-63
2023/05/04 05:18:13;;;;;;;7.90;5.13;;;;;;;16.89;80.01;99724.09;5160481;27;20046;-61
2023/05/04 05:20:40;;;;;;;7.38;4.40;;;;;;;17.23;80.79;99714.59;5160713;27;20074;-57
2023/05/04 05:23:06;;;;;;;10.82;5.15;;;;;;;17.53;78.72;99719.72;5158712;27;20134;-63
2023/05/04 05:25:32;;;;;;;14.23;5.40;;;;;;;17.94;78.14;99727.59;5158590;27;20105;-60
2023/05/04 05:27:58;;;;;;;10.70;5.72;;;;;;;17.82;70.40;99739.88;5158278;27;20078;-58
2023/05/04 05:30:27;;;;;;;7.35;4.55;;;;;;;18.48;66.44;99739.25;5158288;27;20054;-60
2023/05/04 05:32:52;;;;;;;7.60;4.47;;;;;;;18.99;67.78;99738.59;5158035;27;20062;-64
2023/05/04 05:35:18;;;;;;;7.55;4.70;;;;;;;19.04;64.60;99746.47;5157858;27;20046;-66
2023/05/04 05:37:46;;;;;;;5.05;3.80;;;;;;;19.09;64.98;99742.47;5158245;27;20480;-60
2023/05/04 05:40:13;;;;;;;6.53;4.65;;;;;;;19.62;60.97;99744.00;5158088;27;20054;-61
2023/05/04 05:42:39;;;;;;;5.55;3.88;;;;;;;19.83;57.79;99748.59;5158194;27;20043;-60
2023/05/04 05:45:06;;;;;;;6.50;3.53;;;;;;;20.18;58.01;99749.38;5157583;27;20061;-59
2023/05/04 05:47:32;;;;;;;13.98;4.20;;;;;;;20.47;55.20;99749.84;5158048;27;20076;-60
2023/05/04 05:49:58;;;;;;;6.85;3.35;;;;;;;20.51;56.52;99755.38;5157776;27;20163;-60
2023/05/04 05:52:24;;;;;;;6.55;3.00;;;;;;;20.76;53.18;99753.06;5158216;27;20050;-65
2023/05/04 05:54:51;;;;;;;10.60;3.85;;;;;;;20.76;54.29;99743.88;5157702;27;20403;-62
2023/05/04 05:57:17;;;;;;;3.47;2.58;;;;;;;21.30;53.15;99752.22;5157830;27;20137;-65
2023/05/04 05:59:43;;;;;;;6.07;2.53;;;;;;;20.86;52.57;99749.31;5158014;27;20384;-62
2023/05/04 06:02:10;;;;;;;3.30;2.72;;;;;;;21.39;51.12;99755.28;5158070;27;20135;-63
2023/05/04 06:04:36;;;;;;;4.82;2.70;;;;;;;20.85;50.33;99752.50;5161536;27;20046;-59
2023/05/04 06:07:02;;;;;;;2.55;2.08;;;;;;;21.09;49.89;99754.16;5161409;27;20203;-56
2023/05/04 06:09:28;;;;;;;3.78;2.53;;;;;;;21.11;49.94;99754.50;5161438;27;20297;-56
2023/05/04 06:11:54;;;;;;;3.85;2.25;;;;;;;21.64;49.35;99752.06;5161344;27;20133;-57
2023/05/04 06:14:20;;;;;;;2.03;1.83;;;;;;;21.70;47.87;99744.78;5161222;27;20134;-59
2023/05/04 06:16:46;;;;;;;2.10;1.77;;;;;;;21.83;47.53;99750.53;5160976;27;20054;-62
2023/05/04 06:19:12;;;;;;;4.90;2.03;;;;;;;21.65;46.53;99750.84;5161419;27;20104;-62
2023/05/04 06:21:38;;;;;;;1.58;1.48;;;;;;;21.73;46.82;99755.09;5160808;27;20141;-63
2023/05/04 06:24:05;;;;;;;4.03;1.45;;;;;;;21.45;46.24;99759.16;5161207;27;20051;-67
2023/05/04 06:26:31;;;;;;;3.35;1.50;;;;;;;21.29;45.62;99759.00;5161090;27;20046;-68
2023/05/04 06:28:57;;;;;;;1.80;1.40;;;;;;;21.21;45.56;99763.91;5160938;27;20051;-61
2023/05/04 06:31:23;;;;;;;3.85;1.40;;;;;;;21.72;43.93;99758.31;5160628;27;20522;-57
2023/05/04 06:33:49;;;;;;;2.20;1.80;;;;;;;21.61;44.95;99762.06;5160967;27;20086;-58
2023/05/04 06:36:18;;;;;;;1.23;1.13;;;;;;;21.84;44.30;99760.47;5160937;27;20108;-59
2023/05/04 06:38:44;;;;;;;3.92;1.10;;;;;;;21.82;44.57;99769.25;5160657;27;20065;-68
2023/05/04 06:41:10;;;;;;;1.60;1.17;;;;;;;22.06;43.48;99763.66;5160697;27;20055;-65
2023/05/04 06:43:37;;;;;;;6.10;1.40;;;;;;;21.51;43.42;99759.47;5160491;27;20141;-64
2023/05/04 06:46:04;;;;;;;1.27;1.17;;;;;;;21.78;43.78;99762.19;5160887;27;20049;-70
2023/05/04 06:48:31;;;;;;;1.95;1.40;;;;;;;22.27;43.68;99759.69;5160541;27;20420;-66
2023/05/04 06:50:57;;;;;;;3.75;1.35;;;;;;;22.61;42.78;99764.16;5160809;27;20129;-67
2023/05/04 06:53:23;;;;;;;1.30;1.20;;;;;;;22.39;43.62;99761.00;5160646;27;20051;-69
2023/05/04 06:55:50;;;;;;;3.63;1.20;;;;;;;22.59;43.95;99763.78;5160468;27;20082;-64
2023/05/04 06:58:16;;;;;;;1.50;1.40;;;;;;;22.87;43.30;99754.00;5160678;27;20064;-68
2023/05/04 07:00:42;;;;;;;1.65;1.27;;;;;;;22.34;43.58;99753.94;5160555;27;20082;-59
2023/05/04 07:03:09;;;;;;;4.32;1.35;;;;;;;20.95;45.09;99753.56;5160707;27;20148;-57
2023/05/04 07:05:35;;;;;;;2.40;1.95;;;;;;;20.09;45.95;99749.91;5160604;27;20061;-60
2023/05/04 07:08:01;;;;;;;1.63;1.42;;;;;;;19.00;46.11;99753.25;5160654;27;20139;-61
2023/05/04 07:10:27;;;;;;;2.33;1.60;;;;;;;18.10;46.39;99748.13;5160298;27;20050;-59
2023/05/04 07:12:53;;;;;;;2.45;1.70;;;;;;;17.50;47.54;99745.47;5160745;27;20046;-68
2023/05/04 07:15:19;;;;;;;5.63;2.05;;;;;;;17.71;48.11;99742.66;5159253;27;20050;-69
2023/05/04 07:17:46;;;;;;;2.00;1.63;;;;;;;18.26;48.24;99741.31;5160268;27;20054;-61
2023/05/04 07:20:13;;;;;;;4.30;1.27;;;;;;;17.67;48.51;99739.09;5160288;27;20365;-67
2023/05/04 07:22:39;;;;;;;1.95;1.52;;;;;;;16.84;49.48;99732.00;5160567;27;20050;-61
2023/05/04 07:25:06;;;;;;;3.60;1.40;;;;;;;16.33;51.28;99733.03;5160372;27;20055;-63
2023/05/04 07:27:33;;;;;;;1.60;1.17;;;;;;;16.32;50.92;99736.94;5160011;27;20404;-67
2023/05/04 07:30:00;;;;;;;1.98;1.50;;;;;;;16.02;52.70;99731.69;5160438;27;20199;-60
2023/05/04 07:32:26;;;;;;;4.65;1.23;;;;;;;15.60;51.75;99736.56;5160364;27;20058;-65
2023/05/04 07:34:52;;;;;;;5.60;2.10;;;;;;;15.10;51.54;99736.19;5161706;27;20396;-64
2023/05/04 07:37:19;;;;;;;0.90;0.90;;;;;;;15.22;52.35;99729.56;5161010;27;20107;-66
2023/05/04 07:39:44;;;;;;;3.72;1.20;;;;;;;15.05;52.28;99731.00;5163291;27;20047;-63
2023/05/04 07:42:10;;;;;;;1.67;1.02;;;;;;;14.89;53.31;99736.75;5160007;27;20042;-75
2023/05/04 07:44:36;;;;;;;2.22;1.00;;;;;;;14.76;53.73;99729.94;5159969;27;20183;-70
2023/05/04 07:47:02;;;;;;;0.90;0.90;;;;;;;14.78;52.40;99731.16;5159643;27;20106;-64
2023/05/04 07:49:28;;;;;;;2.15;1.23;;;;;;;14.75;51.23;99733.88;5159906;27;20046;-60
2023/05/04 07:51:54;;;;;;;4.03;1.00;;;;;;;14.62;52.60;99725.06;5159886;27;20053;-57
2023/05/04 07:54:21;;;;;;;5.80;1.00;;;;;;;14.75;52.98;99723.63;5160234;27;20054;-63
2023/05/04 07:56:47;;;;;;;2.75;2.25;;;;;;;14.73;53.16;99727.97;5159883;27;20053;-69
2023/05/04 07:59:13;;;;;;;4.55;1.23;;;;;;;14.77;55.69;99726.81;5159616;27;20046;-72
2023/05/04 08:01:39;;;;;;;1.48;1.33;;;;;;;14.78;52.28;99719.31;5159816;27;20046;-65
2023/05/04 08:04:05;;;;;;;1.35;1.13;;;;;;;14.87;53.31;99719.00;5159418;27;20592;-63
2023/05/04 08:06:33;;;;;;;0.77;0.77;;;;;;;15.04;52.51;99727.44;5159644;27;20134;-60
2023/05/04 08:08:59;;;;;;;1.52;1.08;;;;;;;15.03;51.90;99723.13;5159353;27;20408;-62
2023/05/04 08:11:25;;;;;;;6.05;1.20;;;;;;;15.00;51.72;99723.88;5159911;27;20097;-61
2023/05/04 08:13:51;;;;;;;1.50;1.10;;;;;;;15.14;51.86;99725.97;5159161;27;20075;-62
2023/05/04 08:16:17;;;;;;;4.22;1.30;;;;;;;14.88;51.16;99715.88;5159371;27;20137;-58
2023/05/04 08:18:43;;;;;;;1.67;1.45;;;;;;;14.97;51.77;99721.09;5159088;27;20130;-62
2023/05/04 08:21:09;;;;;;;1.90;1.33;;;;;;;14.95;52.42;99715.13;5159279;27;20380;-63
2023/05/04 08:23:35;;;;;;;1.63;1.50;;;;;;;15.24;53.11;99716.97;5159418;27;20349;-70
2023/05/04 08:26:02;;;;;;;7.55;1.05;;;;;;;15.30;51.80;99717.41;5159013;27;20073;-66
2023/05/04 08:28:29;;;;;;;1.73;1.25;;;;;;;15.18;53.87;99712.97;5159387;27;20062;-69
2023/05/04 08:30:55;;;;;;;1.23;1.13;;;;;;;15.45;50.36;99721.84;5159311;27;20142;-62
2023/05/04 08:33:21;;;;;;;4.68;1.77;;;;;;;15.48;49.97;99715.56;5159062;27;20328;-69
2023/05/04 08:35:47;;;;;;;2.13;1.20;;;;;;;14.71;51.16;99710.97;5158788;27;20137;-70
2023/05/04 08:38:13;;;;;;;2.92;1.27;;;;;;;15.11;52.28;99715.66;5159331;27;20195;-73
2023/05/04 08:40:40;;;;;;;1.38;1.10;;;;;;;15.54;52.81;99714.00;5158769;27;20051;-71
2023/05/04 08:43:06;;;;;;;1.80;1.33;;;;;;;15.51;54.03;99714.00;5159235;27;20055;-60
2023/05/04 08:45:36;;;;;;;1.90;1.40;;;;;;;15.72;52.49;99713.34;5158828;27;20476;-66
2023/05/04 08:48:03;;;;;;;5.85;1.35;;;;;;;15.46;53.86;99708.81;5161592;27;20089;-67
2023/05/04 08:50:29;;;;;;;4.85;1.80;;;;;;;15.63;53.22;99707.38;5160573;27;20115;-71
2023/05/04 08:52:59;;;;;;;4.38;1.42;;;;;;;15.77;53.63;99713.78;5158989;27;20439;-61
2023/05/04 08:55:26;;;;;;;2.92;1.08;;;;;;;15.66;52.16;99721.25;5158985;27;20137;-59
2023/05/04 08:57:52;;;;;;;1.95;1.20;;;;;;;15.52;53.19;99719.13;5158564;27;20142;-63
2023/05/04 09:00:19;;;;;;;4.75;1.23;;;;;;;15.32;53.18;99712.28;5158585;27;20190;-72
2023/05/04 09:02:48;;;;;;;3.03;2.00;;;;;;;15.56;55.75;99715.59;5158474;27;20051;-65
2023/05/04 09:05:14;;;;;;;2.63;1.70;;;;;;;15.50;56.21;99715.19;5158425;27;20491;-69
2023/05/04 09:07:40;;;;;;;2.72;1.30;;;;;;;15.54;56.04;99711.25;5158536;27;20050;-70
2023/05/04 09:10:07;;;;;;;7.40;1.10;;;;;;;15.28;57.07;99717.00;5158962;27;20374;-72
2023/05/04 09:12:33;;;;;;;5.53;1.20;;;;;;;15.43;55.91;99717.91;5158378;27;20051;-61
2023/05/04 09:15:01;;;;;;;2.28;1.17;;;;;;;15.60;54.30;99716.44;5158381;27;20047;-67
2023/05/04 09:17:28;;;;;;;5.95;1.95;;;;;;;15.63;54.84;99721.97;5158387;27;20054;-58
2023/05/04 09:19:58;;;;;;;1.23;1.10;;;;;;;15.70;53.99;99721.25;5158529;27;20158;-63
2023/05/04 09:22:24;;;;;;;1.90;1.00;;;;;;;15.65;55.65;99716.06;5158561;27;20134;-60
2023/05/04 09:24:50;;;;;;;1.80;0.93;;;;;;;15.64;53.21;99711.72;5158495;27;20046;-62
2023/05/04 09:27:16;;;;;;;2.28;1.25;;;;;;;15.60;53.80;99710.91;5158609;27;20284;-61
2023/05/04 09:29:43;;;;;;;2.35;1.27;;;;;;;15.80;53.25;99709.47;5158061;27;20097;-60
2023/05/04 09:32:13;;;;;;;2.65;1.60;;;;;;;15.74;52.98;99709.03;5158425;27;20084;-63
2023/05/04 09:34:47;;;;;;;3.40;1.50;;;;;;;15.43;54.53;99704.88;5158043;27;20339;-60
2023/05/04 09:37:13;;;;;;;5.35;1.55;;;;;;;15.72;55.48;99703.09;5157883;27;20054;-63
2023/05/04 09:39:49;;;;;;;3.70;1.27;;;;;;;15.75;53.57;99701.53;5158432;27;20043;-66
2023/05/04 09:42:17;;;;;;;2.67;1.30;;;;;;;15.84;53.43;99701.19;5158275;27;20047;-69
2023/05/04 09:44:43;;;;;;;2.05;1.08;;;;;;;15.96;52.84;99709.94;5158184;27;20051;-70
2023/05/04 09:47:10;;;;;;;2.75;1.20;;;;;;;16.12;51.11;99703.28;5158349;27;20321;-66
2023/05/04 09:49:36;;;;;;;4.32;2.67;;;;;;;16.37;52.48;99700.63;5158538;27;20046;-63
2023/05/04 09:52:04;;;;;;;3.95;1.48;;;;;;;16.90;53.02;99703.50;5157726;27;20498;-59
2023/05/04 09:54:33;;;;;;;4.35;1.33;;;;;;;17.00;50.86;99703.91;5158096;27;20326;-63
2023/05/04 09:57:09;;;;;;;3.70;2.20;;;;;;;16.96;52.60;99705.88;5157806;27;20301;-62
2023/05/04 09:59:35;;;;;;;2.42;1.38;;;;;;;16.83;49.88;99692.44;5158039;27;20115;-60
2023/05/04 10:02:03;;;;;;;2.78;1.60;;;;;;;17.18;50.32;99696.38;5157809;27;20057;-68
2023/05/04 10:04:31;;;;;;;2.20;1.40;;;;;;;17.64;50.78;99699.09;5158092;27;20090;-67
2023/05/04 10:06:57;;;;;;;2.30;1.25;;;;;;;18.02;49.92;99695.84;5157691;27;20142;-58
2023/05/04 10:09:26;;;;;;;1.65;1.40;;;;;;;17.91;49.06;99692.31;5157927;27;20327;-59
2023/05/04 10:11:53;;;;;;;1.95;1.75;;;;;;;18.24;50.13;99691.78;5157596;27;20216;-59
2023/05/04 10:14:19;;;;;;;5.25;1.90;;;;;;;18.38;49.23;99685.38;5157964;27;20055;-61
2023/05/04 10:16:52;;;;;;;2.25;1.67;;;;;;;19.40;48.04;99681.47;5157884;27;20138;-63
2023/05/04 10:19:37;;;;;;;3.83;1.23;;;;;;;19.70;46.69;99680.78;5157683;27;20089;-65
2023/05/04 10:22:23;;;;;;;4.65;1.60;;;;;;;19.42;46.66;99681.81;5157862;27;20053;-63
2023/05/04 10:25:23;;;;;;;4.45;1.70;;;;;;;20.12;47.14;99678.69;5157253;27;20046;-59
2023/05/04 10:28:00;;;;;;;9.07;1.48;;;;;;;20.03;48.22;99676.41;5157165;27;20061;-63
2023/05/04 10:30:26;;;;;;;1.95;1.75;;;;;;;19.21;47.41;99675.25;5157505;27;20055;-60
2023/05/04 10:32:56;;;;;;;4.43;1.40;;;;;;;19.80;46.79;99665.19;5157329;27;20051;-66
2023/05/04 10:35:22;;;;;;;1.80;1.27;;;;;;;18.35;47.43;99667.53;5157392;27;20312;-59
2023/05/04 10:37:53;;;;;;;2.97;1.40;;;;;;;18.47;46.84;99673.81;5157097;27;20313;-60
2023/05/04 10:40:20;;;;;;;2.88;1.50;;;;;;;18.59;46.95;99667.78;5157717;27;20093;-68
2023/05/04 10:42:46;;;;;;;5.10;1.50;;;;;;;18.13;46.70;99674.41;5157197;27;20443;-58
2023/05/04 10:45:12;;;;;;;1.52;1.33;;;;;;;17.94;48.77;99659.03;5158249;27;20042;-59
2023/05/04 10:47:39;;;;;;;1.77;1.25;;;;;;;17.78;48.83;99662.25;5159327;27;20154;-60
2023/05/04 10:50:07;;;;;;;1.13;1.02;;;;;;;17.62;49.50;99659.88;5161209;27;20070;-63
2023/05/04 10:52:45;;;;;;;2.15;1.80;;;;;;;16.93;49.74;99652.88;5161093;27;20057;-58
2023/05/04 10:55:11;;;;;;;1.88;1.65;;;;;;;16.48;50.28;99652.41;5160447;27;20408;-63
2023/05/04 10:57:46;;;;;;;2.30;1.42;;;;;;;16.62;50.22;99659.94;5160768;27;20107;-67
2023/05/04 11:00:14;;;;;;;1.52;1.33;;;;;;;16.69;50.83;99654.44;5160421;27;20091;-57
2023/05/04 11:02:40;;;;;;;3.63;1.20;;;;;;;16.52;51.60;99654.38;5160700;27;20169;-61
2023/05/04 11:05:07;;;;;;;2.55;2.00;;;;;;;16.38;52.61;99658.72;5160175;27;20051;-58
2023/05/04 11:07:35;;;;;;;1.58;1.35;;;;;;;16.52;50.76;99654.38;5160581;27;20521;-56
2023/05/04 11:10:02;;;;;;;5.20;2.10;;;;;;;16.55;52.75;99654.38;5160508;27;20062;-62
2023/05/04 11:12:28;;;;;;;1.50;1.40;;;;;;;16.45;52.38;99652.41;5160432;27;20050;-64
2023/05/04 11:15:03;;;;;;;4.65;1.30;;;;;;;16.33;52.05;99644.50;5160246;27;20454;-63
2023/05/04 11:17:29;;;;;;;1.73;1.63;;;;;;;16.23;52.27;99641.28;5160307;27;20136;-54
2023/05/04 11:19:55;;;;;;;6.55;2.15;;;;;;;16.06;52.08;99638.47;5160582;27;20042;-58
2023/05/04 11:22:22;;;;;;;8.43;3.20;;;;;;;15.94;52.80;99645.94;5160381;27;20210;-58
2023/05/04 11:24:48;;;;;;;4.22;3.55;;;;;;;15.87;53.64;99642.34;5160389;27;20142;-65
2023/05/04 11:27:21;;;;;;;4.88;3.38;;;;;;;15.67;54.24;99637.13;5160462;27;20097;-62